sensor_id;sensor_type;location;lat;lon;timestamp;P1;durP1;ratioP1;P2;durP2;ratioP2
51312;SDS011;37397;53.226;10.400;2023-03-04T00:00:03;20.33;;;3.97;;
51312;SDS011;37397;53.226;10.400;2023-03-04T00:02:35;19.08;;;3.80;;
51312;SDS011;37397;53.226;10.400;2023-03-04T00:05:02;26.05;;;4.00;;
51312;SDS011;37397;53.226;10.400;2023-03-04T00:07:29;15.75;;;3.90;;
51312;SDS011;37397;53.226;10.400;2023-03-04T00:09:55;24.08;;;4.40;;
51312;SDS011;37397;53.226;10.400;2023-03-04T00:12:22;14.25;;;3.58;;
51312;SDS011;37397;53.226;10.400;2023-03-04T00:14:48;19.65;;;3.08;;
51312;SDS011;37397;53.226;10.400;2023-03-04T00:17:15;22.05;;;3.88;;
51312;SDS011;37397;53.226;10.400;2023-03-04T00:19:42;22.13;;;4.60;;
51312;SDS011;37397;53.226;10.400;2023-03-04T00:22:09;27.27;;;4.05;;
51312;SDS011;37397;53.226;10.400;2023-03-04T00:24:36;20.75;;;3.97;;
51312;SDS011;37397;53.226;10.400;2023-03-04T00:27:02;20.27;;;3.65;;
51312;SDS011;37397;53.226;10.400;2023-03-04T00:29:29;22.75;;;3.78;;
51312;SDS011;37397;53.226;10.400;2023-03-04T00:31:56;24.15;;;4.72;;
51312;SDS011;37397;53.226;10.400;2023-03-04T00:34:22;19.88;;;3.58;;
51312;SDS011;37397;53.226;10.400;2023-03-04T00:36:49;25.60;;;4.90;;
51312;SDS011;37397;53.226;10.400;2023-03-04T00:39:15;22.83;;;4.40;;
51312;SDS011;37397;53.226;10.400;2023-03-04T00:41:42;22.77;;;4.82;;
51312;SDS011;37397;53.226;10.400;2023-03-04T00:44:09;16.23;;;4.45;;
51312;SDS011;37397;53.226;10.400;2023-03-04T00:46:35;14.20;;;3.58;;
51312;SDS011;37397;53.226;10.400;2023-03-04T00:49:02;14.07;;;2.85;;
51312;SDS011;37397;53.226;10.400;2023-03-04T00:51:29;25.70;;;3.88;;
51312;SDS011;37397;53.226;10.400;2023-03-04T00:53:55;21.50;;;3.42;;
51312;SDS011;37397;53.226;10.400;2023-03-04T00:56:25;15.90;;;3.45;;
51312;SDS011;37397;53.226;10.400;2023-03-04T00:58:53;19.70;;;3.55;;
51312;SDS011;37397;53.226;10.400;2023-03-04T01:01:20;20.25;;;3.35;;
51312;SDS011;37397;53.226;10.400;2023-03-04T01:03:47;14.52;;;3.50;;
51312;SDS011;37397;53.226;10.400;2023-03-04T01:06:13;11.50;;;3.08;;
51312;SDS011;37397;53.226;10.400;2023-03-04T01:08:40;23.48;;;3.78;;
51312;SDS011;37397;53.226;10.400;2023-03-04T01:11:06;21.63;;;4.03;;
51312;SDS011;37397;53.226;10.400;2023-03-04T01:13:33;16.75;;;3.67;;
51312;SDS011;37397;53.226;10.400;2023-03-04T01:16:00;14.95;;;2.78;;
51312;SDS011;37397;53.226;10.400;2023-03-04T01:18:28;11.35;;;3.17;;
51312;SDS011;37397;53.226;10.400;2023-03-04T01:20:55;17.00;;;2.83;;
51312;SDS011;37397;53.226;10.400;2023-03-04T01:23:22;12.55;;;2.63;;
51312;SDS011;37397;53.226;10.400;2023-03-04T01:25:49;11.75;;;2.55;;
51312;SDS011;37397;53.226;10.400;2023-03-04T01:28:17;10.52;;;2.53;;
51312;SDS011;37397;53.226;10.400;2023-03-04T01:30:43;14.93;;;2.65;;
51312;SDS011;37397;53.226;10.400;2023-03-04T01:33:10;15.52;;;2.85;;
51312;SDS011;37397;53.226;10.400;2023-03-04T01:35:37;13.57;;;3.20;;
51312;SDS011;37397;53.226;10.400;2023-03-04T01:38:03;20.88;;;3.28;;
51312;SDS011;37397;53.226;10.400;2023-03-04T01:40:30;14.68;;;2.50;;
51312;SDS011;37397;53.226;10.400;2023-03-04T01:42:57;15.85;;;2.95;;
51312;SDS011;37397;53.226;10.400;2023-03-04T01:45:24;19.52;;;2.30;;
51312;SDS011;37397;53.226;10.400;2023-03-04T01:47:50;13.55;;;2.35;;
51312;SDS011;37397;53.226;10.400;2023-03-04T01:50:19;15.13;;;2.65;;
51312;SDS011;37397;53.226;10.400;2023-03-04T01:52:49;8.98;;;2.22;;
51312;SDS011;37397;53.226;10.400;2023-03-04T01:55:17;12.50;;;2.75;;
51312;SDS011;37397;53.226;10.400;2023-03-04T01:57:45;15.43;;;2.50;;
51312;SDS011;37397;53.226;10.400;2023-03-04T02:00:22;12.25;;;2.50;;
51312;SDS011;37397;53.226;10.400;2023-03-04T02:02:57;14.52;;;2.75;;
51312;SDS011;37397;53.226;10.400;2023-03-04T02:05:27;14.45;;;3.08;;
51312;SDS011;37397;53.226;10.400;2023-03-04T02:07:56;13.73;;;2.13;;
51312;SDS011;37397;53.226;10.400;2023-03-04T02:10:24;11.68;;;2.33;;
51312;SDS011;37397;53.226;10.400;2023-03-04T02:12:51;9.88;;;1.92;;
51312;SDS011;37397;53.226;10.400;2023-03-04T02:15:19;15.07;;;2.53;;
51312;SDS011;37397;53.226;10.400;2023-03-04T02:17:46;9.88;;;1.88;;
51312;SDS011;37397;53.226;10.400;2023-03-04T02:23:14;11.57;;;2.00;;
51312;SDS011;37397;53.226;10.400;2023-03-04T02:25:44;9.70;;;2.00;;
51312;SDS011;37397;53.226;10.400;2023-03-04T02:28:15;15.60;;;2.50;;
51312;SDS011;37397;53.226;10.400;2023-03-04T02:30:41;12.25;;;2.25;;
51312;SDS011;37397;53.226;10.400;2023-03-04T02:33:12;17.02;;;2.28;;
51312;SDS011;37397;53.226;10.400;2023-03-04T02:35:41;10.73;;;1.92;;
51312;SDS011;37397;53.226;10.400;2023-03-04T02:38:08;16.83;;;2.70;;
51312;SDS011;37397;53.226;10.400;2023-03-04T02:40:36;13.68;;;2.17;;
51312;SDS011;37397;53.226;10.400;2023-03-04T02:43:07;12.00;;;2.22;;
51312;SDS011;37397;53.226;10.400;2023-03-04T02:45:44;10.55;;;1.80;;
51312;SDS011;37397;53.226;10.400;2023-03-04T02:48:14;10.45;;;2.00;;
51312;SDS011;37397;53.226;10.400;2023-03-04T02:50:52;13.13;;;2.28;;
51312;SDS011;37397;53.226;10.400;2023-03-04T02:53:19;13.60;;;2.42;;
51312;SDS011;37397;53.226;10.400;2023-03-04T02:55:48;15.13;;;2.08;;
51312;SDS011;37397;53.226;10.400;2023-03-04T02:58:16;12.15;;;2.70;;
51312;SDS011;37397;53.226;10.400;2023-03-04T03:00:43;16.00;;;3.03;;
51312;SDS011;37397;53.226;10.400;2023-03-04T03:03:10;10.38;;;1.77;;
51312;SDS011;37397;53.226;10.400;2023-03-04T03:05:36;13.32;;;2.33;;
51312;SDS011;37397;53.226;10.400;2023-03-04T03:08:04;14.32;;;2.40;;
51312;SDS011;37397;53.226;10.400;2023-03-04T03:10:31;8.93;;;1.85;;
51312;SDS011;37397;53.226;10.400;2023-03-04T03:12:58;8.40;;;2.15;;
51312;SDS011;37397;53.226;10.400;2023-03-04T03:15:25;11.27;;;1.83;;
51312;SDS011;37397;53.226;10.400;2023-03-04T03:17:53;14.05;;;2.50;;
51312;SDS011;37397;53.226;10.400;2023-03-04T03:20:20;15.45;;;2.55;;
51312;SDS011;37397;53.226;10.400;2023-03-04T03:22:46;15.13;;;2.72;;
51312;SDS011;37397;53.226;10.400;2023-03-04T03:25:14;12.00;;;2.72;;
51312;SDS011;37397;53.226;10.400;2023-03-04T03:27:42;13.38;;;2.65;;
51312;SDS011;37397;53.226;10.400;2023-03-04T03:30:11;8.90;;;2.45;;
51312;SDS011;37397;53.226;10.400;2023-03-04T03:32:39;12.88;;;2.67;;
51312;SDS011;37397;53.226;10.400;2023-03-04T03:35:06;13.88;;;3.25;;
51312;SDS011;37397;53.226;10.400;2023-03-04T03:37:33;10.73;;;2.65;;
51312;SDS011;37397;53.226;10.400;2023-03-04T03:39:59;15.15;;;2.65;;
51312;SDS011;37397;53.226;10.400;2023-03-04T03:42:26;18.58;;;3.03;;
51312;SDS011;37397;53.226;10.400;2023-03-04T03:44:53;15.73;;;3.00;;
51312;SDS011;37397;53.226;10.400;2023-03-04T03:47:21;7.38;;;2.35;;
51312;SDS011;37397;53.226;10.400;2023-03-04T03:49:48;13.30;;;2.15;;
51312;SDS011;37397;53.226;10.400;2023-03-04T03:52:14;13.27;;;2.92;;
51312;SDS011;37397;53.226;10.400;2023-03-04T03:54:41;12.77;;;2.83;;
51312;SDS011;37397;53.226;10.400;2023-03-04T03:57:08;13.10;;;2.42;;
51312;SDS011;37397;53.226;10.400;2023-03-04T03:59:35;12.63;;;2.92;;
51312;SDS011;37397;53.226;10.400;2023-03-04T04:02:02;11.27;;;2.60;;
51312;SDS011;37397;53.226;10.400;2023-03-04T04:04:28;11.45;;;2.50;;
51312;SDS011;37397;53.226;10.400;2023-03-04T04:06:55;15.63;;;2.90;;
51312;SDS011;37397;53.226;10.400;2023-03-04T04:09:22;11.45;;;2.55;;
51312;SDS011;37397;53.226;10.400;2023-03-04T04:11:48;10.27;;;2.17;;
51312;SDS011;37397;53.226;10.400;2023-03-04T04:14:15;15.55;;;2.85;;
51312;SDS011;37397;53.226;10.400;2023-03-04T04:16:41;15.82;;;2.70;;
51312;SDS011;37397;53.226;10.400;2023-03-04T04:19:12;13.95;;;2.22;;
51312;SDS011;37397;53.226;10.400;2023-03-04T04:21:42;12.35;;;1.90;;
51312;SDS011;37397;53.226;10.400;2023-03-04T04:24:09;11.50;;;2.30;;
51312;SDS011;37397;53.226;10.400;2023-03-04T04:26:36;16.38;;;2.58;;
51312;SDS011;37397;53.226;10.400;2023-03-04T04:29:02;7.75;;;2.03;;
51312;SDS011;37397;53.226;10.400;2023-03-04T04:31:29;12.63;;;2.65;;
51312;SDS011;37397;53.226;10.400;2023-03-04T04:33:56;12.95;;;2.28;;
51312;SDS011;37397;53.226;10.400;2023-03-04T04:36:22;15.15;;;2.67;;
51312;SDS011;37397;53.226;10.400;2023-03-04T04:38:49;9.90;;;2.08;;
51312;SDS011;37397;53.226;10.400;2023-03-04T04:41:20;12.25;;;2.35;;
51312;SDS011;37397;53.226;10.400;2023-03-04T04:43:48;11.70;;;2.80;;
51312;SDS011;37397;53.226;10.400;2023-03-04T04:46:14;7.22;;;2.20;;
51312;SDS011;37397;53.226;10.400;2023-03-04T04:48:41;10.65;;;2.40;;
51312;SDS011;37397;53.226;10.400;2023-03-04T04:51:08;9.60;;;2.13;;
51312;SDS011;37397;53.226;10.400;2023-03-04T04:53:35;8.10;;;2.17;;
51312;SDS011;37397;53.226;10.400;2023-03-04T04:56:12;10.60;;;2.42;;
51312;SDS011;37397;53.226;10.400;2023-03-04T04:58:44;14.38;;;3.00;;
51312;SDS011;37397;53.226;10.400;2023-03-04T05:01:12;13.40;;;2.38;;
51312;SDS011;37397;53.226;10.400;2023-03-04T05:03:39;9.48;;;2.15;;
51312;SDS011;37397;53.226;10.400;2023-03-04T05:06:07;9.35;;;2.35;;
51312;SDS011;37397;53.226;10.400;2023-03-04T05:08:36;12.50;;;2.20;;
51312;SDS011;37397;53.226;10.400;2023-03-04T05:11:04;8.30;;;2.08;;
51312;SDS011;37397;53.226;10.400;2023-03-04T05:13:32;11.43;;;2.22;;
51312;SDS011;37397;53.226;10.400;2023-03-04T05:15:59;14.57;;;2.35;;
51312;SDS011;37397;53.226;10.400;2023-03-04T05:18:25;12.90;;;1.92;;
51312;SDS011;37397;53.226;10.400;2023-03-04T05:20:53;9.57;;;2.08;;
51312;SDS011;37397;53.226;10.400;2023-03-04T05:23:22;8.95;;;2.10;;
51312;SDS011;37397;53.226;10.400;2023-03-04T05:25:49;7.68;;;2.17;;
51312;SDS011;37397;53.226;10.400;2023-03-04T05:28:16;5.13;;;1.60;;
51312;SDS011;37397;53.226;10.400;2023-03-04T05:30:44;11.07;;;2.25;;
51312;SDS011;37397;53.226;10.400;2023-03-04T05:33:11;10.02;;;1.90;;
51312;SDS011;37397;53.226;10.400;2023-03-04T05:35:40;11.68;;;1.73;;
51312;SDS011;37397;53.226;10.400;2023-03-04T05:38:08;6.45;;;2.13;;
51312;SDS011;37397;53.226;10.400;2023-03-04T05:40:37;6.53;;;1.70;;
51312;SDS011;37397;53.226;10.400;2023-03-04T05:43:04;8.00;;;1.95;;
51312;SDS011;37397;53.226;10.400;2023-03-04T05:45:31;7.57;;;1.58;;
51312;SDS011;37397;53.226;10.400;2023-03-04T05:47:58;11.15;;;2.05;;
51312;SDS011;37397;53.226;10.400;2023-03-04T05:50:25;9.23;;;1.95;;
51312;SDS011;37397;53.226;10.400;2023-03-04T05:52:54;5.85;;;2.05;;
51312;SDS011;37397;53.226;10.400;2023-03-04T05:55:21;7.72;;;1.83;;
51312;SDS011;37397;53.226;10.400;2023-03-04T05:57:47;8.20;;;2.15;;
51312;SDS011;37397;53.226;10.400;2023-03-04T06:00:14;6.95;;;1.83;;
51312;SDS011;37397;53.226;10.400;2023-03-04T06:02:41;7.88;;;2.10;;
51312;SDS011;37397;53.226;10.400;2023-03-04T06:05:09;9.48;;;2.10;;
51312;SDS011;37397;53.226;10.400;2023-03-04T06:07:37;11.15;;;2.40;;
51312;SDS011;37397;53.226;10.400;2023-03-04T06:10:04;8.75;;;2.28;;
51312;SDS011;37397;53.226;10.400;2023-03-04T06:12:31;11.15;;;2.15;;
51312;SDS011;37397;53.226;10.400;2023-03-04T06:14:58;10.15;;;2.50;;
51312;SDS011;37397;53.226;10.400;2023-03-04T06:17:24;15.18;;;2.45;;
51312;SDS011;37397;53.226;10.400;2023-03-04T06:19:51;6.82;;;2.17;;
51312;SDS011;37397;53.226;10.400;2023-03-04T06:22:17;11.68;;;2.00;;
51312;SDS011;37397;53.226;10.400;2023-03-04T06:24:44;13.00;;;3.08;;
51312;SDS011;37397;53.226;10.400;2023-03-04T06:27:10;13.32;;;2.17;;
51312;SDS011;37397;53.226;10.400;2023-03-04T06:29:38;12.00;;;2.53;;
51312;SDS011;37397;53.226;10.400;2023-03-04T06:32:05;14.70;;;3.17;;
51312;SDS011;37397;53.226;10.400;2023-03-04T06:34:32;13.13;;;3.20;;
51312;SDS011;37397;53.226;10.400;2023-03-04T06:36:59;16.10;;;3.42;;
51312;SDS011;37397;53.226;10.400;2023-03-04T06:39:25;14.45;;;3.33;;
51312;SDS011;37397;53.226;10.400;2023-03-04T06:41:52;15.68;;;3.25;;
51312;SDS011;37397;53.226;10.400;2023-03-04T06:44:19;19.90;;;3.70;;
51312;SDS011;37397;53.226;10.400;2023-03-04T06:46:45;16.02;;;3.60;;
51312;SDS011;37397;53.226;10.400;2023-03-04T06:49:12;16.83;;;3.53;;
51312;SDS011;37397;53.226;10.400;2023-03-04T06:51:39;19.95;;;4.45;;
51312;SDS011;37397;53.226;10.400;2023-03-04T06:54:05;25.70;;;4.13;;
51312;SDS011;37397;53.226;10.400;2023-03-04T06:56:32;28.80;;;5.20;;
51312;SDS011;37397;53.226;10.400;2023-03-04T06:58:58;24.75;;;4.95;;
51312;SDS011;37397;53.226;10.400;2023-03-04T07:01:26;23.38;;;4.72;;
51312;SDS011;37397;53.226;10.400;2023-03-04T07:03:54;23.10;;;4.80;;
51312;SDS011;37397;53.226;10.400;2023-03-04T07:06:23;20.48;;;4.78;;
51312;SDS011;37397;53.226;10.400;2023-03-04T07:08:51;20.88;;;3.90;;
51312;SDS011;37397;53.226;10.400;2023-03-04T07:11:18;28.25;;;4.40;;
51312;SDS011;37397;53.226;10.400;2023-03-04T07:13:45;23.73;;;4.53;;
51312;SDS011;37397;53.226;10.400;2023-03-04T07:16:13;20.30;;;4.35;;
51312;SDS011;37397;53.226;10.400;2023-03-04T07:18:43;21.33;;;4.32;;
51312;SDS011;37397;53.226;10.400;2023-03-04T07:21:10;27.00;;;5.00;;
51312;SDS011;37397;53.226;10.400;2023-03-04T07:23:37;21.65;;;4.20;;
51312;SDS011;37397;53.226;10.400;2023-03-04T07:26:04;21.83;;;4.22;;
51312;SDS011;37397;53.226;10.400;2023-03-04T07:28:31;25.38;;;4.10;;
51312;SDS011;37397;53.226;10.400;2023-03-04T07:33:56;23.65;;;4.93;;
51312;SDS011;37397;53.226;10.400;2023-03-04T07:36:24;26.00;;;5.00;;
51312;SDS011;37397;53.226;10.400;2023-03-04T07:38:51;24.02;;;5.05;;
51312;SDS011;37397;53.226;10.400;2023-03-04T07:41:20;26.35;;;4.78;;
51312;SDS011;37397;53.226;10.400;2023-03-04T07:43:48;24.08;;;5.05;;
51312;SDS011;37397;53.226;10.400;2023-03-04T07:46:15;32.50;;;6.55;;
51312;SDS011;37397;53.226;10.400;2023-03-04T07:48:42;28.23;;;6.28;;
51312;SDS011;37397;53.226;10.400;2023-03-04T07:51:10;31.42;;;5.65;;
51312;SDS011;37397;53.226;10.400;2023-03-04T07:53:38;31.60;;;6.10;;
51312;SDS011;37397;53.226;10.400;2023-03-04T07:56:07;26.50;;;6.32;;
51312;SDS011;37397;53.226;10.400;2023-03-04T07:58:36;21.35;;;6.38;;
51312;SDS011;37397;53.226;10.400;2023-03-04T08:01:13;32.90;;;7.10;;
51312;SDS011;37397;53.226;10.400;2023-03-04T08:03:45;30.50;;;6.85;;
51312;SDS011;37397;53.226;10.400;2023-03-04T08:06:13;31.08;;;7.07;;
51312;SDS011;37397;53.226;10.400;2023-03-04T08:08:41;23.35;;;6.00;;
51312;SDS011;37397;53.226;10.400;2023-03-04T08:11:10;24.08;;;5.72;;
51312;SDS011;37397;53.226;10.400;2023-03-04T08:13:40;25.23;;;5.63;;
51312;SDS011;37397;53.226;10.400;2023-03-04T08:16:07;19.52;;;5.47;;
51312;SDS011;37397;53.226;10.400;2023-03-04T08:18:34;21.75;;;5.47;;
51312;SDS011;37397;53.226;10.400;2023-03-04T08:21:00;18.25;;;5.80;;
51312;SDS011;37397;53.226;10.400;2023-03-04T08:23:27;17.95;;;5.38;;
51312;SDS011;37397;53.226;10.400;2023-03-04T08:25:53;24.73;;;5.15;;
51312;SDS011;37397;53.226;10.400;2023-03-04T08:28:20;21.73;;;5.75;;
51312;SDS011;37397;53.226;10.400;2023-03-04T08:30:51;14.98;;;5.15;;
51312;SDS011;37397;53.226;10.400;2023-03-04T08:33:19;20.17;;;5.32;;
51312;SDS011;37397;53.226;10.400;2023-03-04T08:35:45;20.38;;;4.90;;
51312;SDS011;37397;53.226;10.400;2023-03-04T08:38:12;17.70;;;4.63;;
51312;SDS011;37397;53.226;10.400;2023-03-04T08:40:38;23.67;;;4.78;;
51312;SDS011;37397;53.226;10.400;2023-03-04T08:43:05;20.35;;;4.93;;
51312;SDS011;37397;53.226;10.400;2023-03-04T08:45:31;20.88;;;5.30;;
51312;SDS011;37397;53.226;10.400;2023-03-04T08:47:58;22.83;;;5.47;;
51312;SDS011;37397;53.226;10.400;2023-03-04T08:50:24;32.83;;;6.20;;
51312;SDS011;37397;53.226;10.400;2023-03-04T08:52:52;24.25;;;5.25;;
51312;SDS011;37397;53.226;10.400;2023-03-04T08:55:19;23.42;;;5.38;;
51312;SDS011;37397;53.226;10.400;2023-03-04T08:57:45;27.75;;;6.22;;
51312;SDS011;37397;53.226;10.400;2023-03-04T09:00:12;24.20;;;5.88;;
51312;SDS011;37397;53.226;10.400;2023-03-04T09:02:39;28.52;;;6.15;;
51312;SDS011;37397;53.226;10.400;2023-03-04T09:05:06;21.55;;;4.90;;
51312;SDS011;37397;53.226;10.400;2023-03-04T09:07:33;29.25;;;5.32;;
51312;SDS011;37397;53.226;10.400;2023-03-04T09:09:59;26.52;;;5.70;;
51312;SDS011;37397;53.226;10.400;2023-03-04T09:12:26;28.85;;;5.75;;
51312;SDS011;37397;53.226;10.400;2023-03-04T09:14:52;25.88;;;5.32;;
51312;SDS011;37397;53.226;10.400;2023-03-04T09:17:35;32.35;;;6.95;;
51312;SDS011;37397;53.226;10.400;2023-03-04T09:20:02;31.85;;;5.68;;
51312;SDS011;37397;53.226;10.400;2023-03-04T09:22:30;33.83;;;5.57;;
51312;SDS011;37397;53.226;10.400;2023-03-04T09:24:57;23.25;;;5.30;;
51312;SDS011;37397;53.226;10.400;2023-03-04T09:27:23;24.63;;;4.30;;
51312;SDS011;37397;53.226;10.400;2023-03-04T09:29:50;24.65;;;5.65;;
51312;SDS011;37397;53.226;10.400;2023-03-04T09:32:17;21.80;;;5.38;;
51312;SDS011;37397;53.226;10.400;2023-03-04T09:34:43;24.70;;;5.43;;
51312;SDS011;37397;53.226;10.400;2023-03-04T09:37:10;25.75;;;5.82;;
51312;SDS011;37397;53.226;10.400;2023-03-04T09:39:36;25.63;;;5.53;;
51312;SDS011;37397;53.226;10.400;2023-03-04T09:42:03;25.27;;;6.07;;
51312;SDS011;37397;53.226;10.400;2023-03-04T09:47:06;27.27;;;6.60;;
51312;SDS011;37397;53.226;10.400;2023-03-04T09:49:41;23.88;;;6.32;;
51312;SDS011;37397;53.226;10.400;2023-03-04T09:57:39;28.60;;;5.53;;
51312;SDS011;37397;53.226;10.400;2023-03-04T10:00:16;31.55;;;6.88;;
51312;SDS011;37397;53.226;10.400;2023-03-04T10:05:32;25.70;;;5.78;;
51312;SDS011;37397;53.226;10.400;2023-03-04T10:08:17;26.30;;;6.60;;
51312;SDS011;37397;53.226;10.400;2023-03-04T10:11:10;27.58;;;5.82;;
51312;SDS011;37397;53.226;10.400;2023-03-04T10:16:17;22.50;;;4.93;;
51312;SDS011;37397;53.226;10.400;2023-03-04T10:18:49;31.77;;;5.85;;
51312;SDS011;37397;53.226;10.400;2023-03-04T10:24:25;31.17;;;5.70;;
51312;SDS011;37397;53.226;10.400;2023-03-04T10:26:59;29.55;;;5.45;;
51312;SDS011;37397;53.226;10.400;2023-03-04T10:29:30;27.15;;;6.28;;
51312;SDS011;37397;53.226;10.400;2023-03-04T10:31:58;30.25;;;5.88;;
51312;SDS011;37397;53.226;10.400;2023-03-04T10:34:25;28.20;;;6.22;;
51312;SDS011;37397;53.226;10.400;2023-03-04T10:36:58;34.83;;;6.30;;
51312;SDS011;37397;53.226;10.400;2023-03-04T10:39:34;34.88;;;6.07;;
51312;SDS011;37397;53.226;10.400;2023-03-04T10:44:51;25.75;;;5.40;;
51312;SDS011;37397;53.226;10.400;2023-03-04T10:47:24;25.17;;;4.80;;
51312;SDS011;37397;53.226;10.400;2023-03-04T10:49:54;26.27;;;5.90;;
51312;SDS011;37397;53.226;10.400;2023-03-04T10:52:45;27.65;;;5.25;;
51312;SDS011;37397;53.226;10.400;2023-03-04T10:55:16;24.70;;;5.68;;
51312;SDS011;37397;53.226;10.400;2023-03-04T10:57:56;30.20;;;5.82;;
51312;SDS011;37397;53.226;10.400;2023-03-04T11:00:32;23.50;;;5.45;;
51312;SDS011;37397;53.226;10.400;2023-03-04T11:03:35;23.88;;;5.10;;
51312;SDS011;37397;53.226;10.400;2023-03-04T11:06:03;27.00;;;4.97;;
51312;SDS011;37397;53.226;10.400;2023-03-04T11:08:52;31.77;;;4.72;;
51312;SDS011;37397;53.226;10.400;2023-03-04T11:11:24;20.67;;;4.93;;
51312;SDS011;37397;53.226;10.400;2023-03-04T11:14:09;32.05;;;5.55;;
51312;SDS011;37397;53.226;10.400;2023-03-04T11:16:44;28.23;;;5.70;;
51312;SDS011;37397;53.226;10.400;2023-03-04T11:19:19;24.75;;;5.18;;
51312;SDS011;37397;53.226;10.400;2023-03-04T11:21:49;27.95;;;5.32;;
51312;SDS011;37397;53.226;10.400;2023-03-04T11:24:25;18.35;;;3.90;;
51312;SDS011;37397;53.226;10.400;2023-03-04T11:26:56;29.65;;;5.53;;
51312;SDS011;37397;53.226;10.400;2023-03-04T11:32:20;29.27;;;5.13;;
51312;SDS011;37397;53.226;10.400;2023-03-04T11:34:50;24.55;;;5.15;;
51312;SDS011;37397;53.226;10.400;2023-03-04T11:37:33;28.75;;;6.47;;
51312;SDS011;37397;53.226;10.400;2023-03-04T11:42:56;26.77;;;5.93;;
51312;SDS011;37397;53.226;10.400;2023-03-04T11:51:02;35.45;;;6.03;;
51312;SDS011;37397;53.226;10.400;2023-03-04T11:53:43;30.63;;;6.13;;
51312;SDS011;37397;53.226;10.400;2023-03-04T11:56:33;30.15;;;6.22;;
51312;SDS011;37397;53.226;10.400;2023-03-04T12:01:55;28.58;;;5.22;;
51312;SDS011;37397;53.226;10.400;2023-03-04T12:12:54;26.92;;;6.18;;
51312;SDS011;37397;53.226;10.400;2023-03-04T12:29:10;23.27;;;6.15;;
51312;SDS011;37397;53.226;10.400;2023-03-04T12:31:52;31.20;;;5.83;;
51312;SDS011;37397;53.226;10.400;2023-03-04T12:34:30;31.10;;;6.05;;
51312;SDS011;37397;53.226;10.400;2023-03-04T12:39:59;27.48;;;5.43;;
51312;SDS011;37397;53.226;10.400;2023-03-04T12:48:15;33.33;;;6.55;;
51312;SDS011;37397;53.226;10.400;2023-03-04T12:54:19;30.70;;;7.22;;
51312;SDS011;37397;53.226;10.400;2023-03-04T12:57:11;26.08;;;5.90;;
51312;SDS011;37397;53.226;10.400;2023-03-04T13:14:22;27.75;;;5.90;;
51312;SDS011;37397;53.226;10.400;2023-03-04T13:17:17;24.90;;;5.20;;
51312;SDS011;37397;53.226;10.400;2023-03-04T13:25:48;26.70;;;4.80;;
51312;SDS011;37397;53.226;10.400;2023-03-04T13:28:41;27.73;;;5.30;;
51312;SDS011;37397;53.226;10.400;2023-03-04T13:36:02;19.55;;;4.05;;
51312;SDS011;37397;53.226;10.400;2023-03-04T13:38:58;23.83;;;4.82;;
51312;SDS011;37397;53.226;10.400;2023-03-04T13:41:47;28.27;;;4.70;;
51312;SDS011;37397;53.226;10.400;2023-03-04T13:44:36;20.77;;;4.20;;
51312;SDS011;37397;53.226;10.400;2023-03-04T13:47:26;22.85;;;4.05;;
51312;SDS011;37397;53.226;10.400;2023-03-04T13:58:44;21.23;;;4.53;;
51312;SDS011;37397;53.226;10.400;2023-03-04T14:01:22;20.48;;;5.18;;
51312;SDS011;37397;53.226;10.400;2023-03-04T14:03:54;28.52;;;4.70;;
51312;SDS011;37397;53.226;10.400;2023-03-04T14:06:22;27.85;;;6.10;;
51312;SDS011;37397;53.226;10.400;2023-03-04T14:08:51;28.17;;;5.57;;
51312;SDS011;37397;53.226;10.400;2023-03-04T14:11:34;22.45;;;4.90;;
51312;SDS011;37397;53.226;10.400;2023-03-04T14:14:09;22.45;;;5.15;;
51312;SDS011;37397;53.226;10.400;2023-03-04T14:16:39;20.83;;;4.88;;
51312;SDS011;37397;53.226;10.400;2023-03-04T14:19:14;28.52;;;5.50;;
51312;SDS011;37397;53.226;10.400;2023-03-04T14:21:46;29.60;;;4.97;;
51312;SDS011;37397;53.226;10.400;2023-03-04T14:24:14;19.10;;;4.15;;
51312;SDS011;37397;53.226;10.400;2023-03-04T14:26:43;22.73;;;5.45;;
51312;SDS011;37397;53.226;10.400;2023-03-04T14:29:19;24.50;;;5.30;;
51312;SDS011;37397;53.226;10.400;2023-03-04T14:31:46;27.25;;;4.97;;
51312;SDS011;37397;53.226;10.400;2023-03-04T14:34:15;24.15;;;4.68;;
51312;SDS011;37397;53.226;10.400;2023-03-04T14:36:49;27.02;;;4.88;;
51312;SDS011;37397;53.226;10.400;2023-03-04T14:39:16;26.48;;;5.28;;
51312;SDS011;37397;53.226;10.400;2023-03-04T14:41:45;26.67;;;5.13;;
51312;SDS011;37397;53.226;10.400;2023-03-04T14:46:56;22.60;;;4.10;;
51312;SDS011;37397;53.226;10.400;2023-03-04T14:49:34;22.27;;;4.75;;
51312;SDS011;37397;53.226;10.400;2023-03-04T14:52:03;23.13;;;4.63;;
51312;SDS011;37397;53.226;10.400;2023-03-04T14:54:38;22.17;;;4.45;;
51312;SDS011;37397;53.226;10.400;2023-03-04T14:57:19;22.85;;;4.88;;
51312;SDS011;37397;53.226;10.400;2023-03-04T14:59:47;20.20;;;4.57;;
51312;SDS011;37397;53.226;10.400;2023-03-04T15:04:46;26.60;;;4.57;;
51312;SDS011;37397;53.226;10.400;2023-03-04T15:07:32;22.08;;;4.60;;
51312;SDS011;37397;53.226;10.400;2023-03-04T15:10:01;28.55;;;4.90;;
51312;SDS011;37397;53.226;10.400;2023-03-04T15:12:34;24.85;;;4.28;;
51312;SDS011;37397;53.226;10.400;2023-03-04T15:15:04;23.05;;;4.85;;
51312;SDS011;37397;53.226;10.400;2023-03-04T15:18:11;25.15;;;4.25;;
51312;SDS011;37397;53.226;10.400;2023-03-04T15:20:41;23.65;;;3.97;;
51312;SDS011;37397;53.226;10.400;2023-03-04T15:23:07;23.98;;;4.40;;
51312;SDS011;37397;53.226;10.400;2023-03-04T15:25:39;26.30;;;4.55;;
51312;SDS011;37397;53.226;10.400;2023-03-04T15:28:09;20.38;;;4.28;;
51312;SDS011;37397;53.226;10.400;2023-03-04T15:30:41;24.45;;;5.18;;
51312;SDS011;37397;53.226;10.400;2023-03-04T15:33:11;22.67;;;4.60;;
51312;SDS011;37397;53.226;10.400;2023-03-04T15:35:39;18.88;;;4.00;;
51312;SDS011;37397;53.226;10.400;2023-03-04T15:38:10;21.73;;;3.67;;
51312;SDS011;37397;53.226;10.400;2023-03-04T15:40:39;19.15;;;4.35;;
51312;SDS011;37397;53.226;10.400;2023-03-04T15:43:10;25.88;;;4.28;;
51312;SDS011;37397;53.226;10.400;2023-03-04T15:45:42;22.77;;;3.85;;
51312;SDS011;37397;53.226;10.400;2023-03-04T15:48:11;23.15;;;4.80;;
51312;SDS011;37397;53.226;10.400;2023-03-04T15:53:36;17.77;;;4.07;;
51312;SDS011;37397;53.226;10.400;2023-03-04T15:56:13;22.38;;;4.72;;
51312;SDS011;37397;53.226;10.400;2023-03-04T15:58:42;21.27;;;4.00;;
51312;SDS011;37397;53.226;10.400;2023-03-04T16:01:13;22.88;;;4.32;;
51312;SDS011;37397;53.226;10.400;2023-03-04T16:03:41;18.75;;;5.13;;
51312;SDS011;37397;53.226;10.400;2023-03-04T16:06:09;23.45;;;4.88;;
51312;SDS011;37397;53.226;10.400;2023-03-04T16:08:37;24.73;;;4.15;;
51312;SDS011;37397;53.226;10.400;2023-03-04T16:11:05;18.92;;;3.70;;
51312;SDS011;37397;53.226;10.400;2023-03-04T16:13:39;22.25;;;3.58;;
51312;SDS011;37397;53.226;10.400;2023-03-04T16:16:08;19.70;;;4.20;;
51312;SDS011;37397;53.226;10.400;2023-03-04T16:18:37;17.83;;;4.40;;
51312;SDS011;37397;53.226;10.400;2023-03-04T16:21:04;17.58;;;3.50;;
51312;SDS011;37397;53.226;10.400;2023-03-04T16:23:35;18.58;;;3.78;;
51312;SDS011;37397;53.226;10.400;2023-03-04T16:26:08;17.50;;;4.10;;
51312;SDS011;37397;53.226;10.400;2023-03-04T16:28:37;22.50;;;4.53;;
51312;SDS011;37397;53.226;10.400;2023-03-04T16:31:04;22.00;;;4.03;;
51312;SDS011;37397;53.226;10.400;2023-03-04T16:33:31;17.60;;;3.72;;